Atwell, West Virginia
Current Conditions -  °F | °C
As of 9:55 PM on Friday 21 Nov 2014 (Local Time) from KJFZ Reporting Station
Clear Clear  
Wind Chill: 35°   Ceiling: Unl
Heat Index: 35°   Visibility: 10mi
Dew Point:   Wind: 0mph
Humidity: 26%   Direction: NA
Pressure: 30.4"   Gusts: NA
Location:  37.3433°N, 81.7826°W
Report Text: KJFZ 220255Z AUTO 00000KT 10SM CLR 02/M16 A3040 RMK AO2 T00161161
Loading
Personal Weather Stations






























Interactive Weather Map New forecast layout! Learn more

10-Day Weather Forecast

Advertisements
Track Severe Weather on mobile